sensor_id;sensor_type;location;lat;lon;timestamp;temperature;humidity
18880;DHT22;9572;52.378;13.404;2023-04-24T00:02:01;10.70;99.90
18880;DHT22;9572;52.378;13.404;2023-04-24T00:04:29;10.60;99.90
18880;DHT22;9572;52.378;13.404;2023-04-24T00:06:57;10.70;99.90
18880;DHT22;9572;52.378;13.404;2023-04-24T00:09:27;10.70;99.90
18880;DHT22;9572;52.378;13.404;2023-04-24T00:11:53;10.70;99.90
18880;DHT22;9572;52.378;13.404;2023-04-24T00:14:21;10.60;99.90
18880;DHT22;9572;52.378;13.404;2023-04-24T00:16:48;10.60;99.90
18880;DHT22;9572;52.378;13.404;2023-04-24T00:19:15;10.60;99.90
18880;DHT22;9572;52.378;13.404;2023-04-24T00:21:42;10.60;99.90
18880;DHT22;9572;52.378;13.404;2023-04-24T00:24:09;10.60;99.90
18880;DHT22;9572;52.378;13.404;2023-04-24T00:26:37;10.60;99.90
18880;DHT22;9572;52.378;13.404;2023-04-24T00:29:04;10.60;99.90
18880;DHT22;9572;52.378;13.404;2023-04-24T00:31:31;10.60;99.90
18880;DHT22;9572;52.378;13.404;2023-04-24T00:34:00;10.60;99.90
18880;DHT22;9572;52.378;13.404;2023-04-24T00:36:27;10.50;99.90
18880;DHT22;9572;52.378;13.404;2023-04-24T00:38:54;10.50;99.90
18880;DHT22;9572;52.378;13.404;2023-04-24T00:41:21;10.40;99.90
18880;DHT22;9572;52.378;13.404;2023-04-24T00:43:50;10.40;99.90
18880;DHT22;9572;52.378;13.404;2023-04-24T00:46:17;10.40;99.90
18880;DHT22;9572;52.378;13.404;2023-04-24T00:48:44;10.40;99.90
18880;DHT22;9572;52.378;13.404;2023-04-24T00:51:11;10.40;99.90
18880;DHT22;9572;52.378;13.404;2023-04-24T00:53:38;10.30;99.90
18880;DHT22;9572;52.378;13.404;2023-04-24T00:56:05;10.30;99.90
18880;DHT22;9572;52.378;13.404;2023-04-24T00:58:32;10.30;99.90
18880;DHT22;9572;52.378;13.404;2023-04-24T01:01:01;10.40;99.90
18880;DHT22;9572;52.378;13.404;2023-04-24T01:03:33;10.40;99.90
18880;DHT22;9572;52.378;13.404;2023-04-24T01:06:03;10.50;99.90
18880;DHT22;9572;52.378;13.404;2023-04-24T01:08:30;10.50;99.90
18880;DHT22;9572;52.378;13.404;2023-04-24T01:10:57;10.50;99.90
18880;DHT22;9572;52.378;13.404;2023-04-24T01:13:24;10.60;99.90
18880;DHT22;9572;52.378;13.404;2023-04-24T01:15:51;10.60;99.90
18880;DHT22;9572;52.378;13.404;2023-04-24T01:18:20;10.60;99.90
18880;DHT22;9572;52.378;13.404;2023-04-24T01:20:49;10.60;99.90
18880;DHT22;9572;52.378;13.404;2023-04-24T01:23:19;10.60;99.90
18880;DHT22;9572;52.378;13.404;2023-04-24T01:25:46;10.60;99.90
18880;DHT22;9572;52.378;13.404;2023-04-24T01:28:14;10.60;99.90
18880;DHT22;9572;52.378;13.404;2023-04-24T01:30:42;10.70;99.90
18880;DHT22;9572;52.378;13.404;2023-04-24T01:33:09;10.70;99.90
18880;DHT22;9572;52.378;13.404;2023-04-24T01:35:36;10.70;99.90
18880;DHT22;9572;52.378;13.404;2023-04-24T01:38:03;10.70;99.90
18880;DHT22;9572;52.378;13.404;2023-04-24T01:40:32;10.70;99.90
18880;DHT22;9572;52.378;13.404;2023-04-24T01:42:59;10.70;99.90
18880;DHT22;9572;52.378;13.404;2023-04-24T01:45:26;10.70;99.90
18880;DHT22;9572;52.378;13.404;2023-04-24T01:47:53;10.70;99.90
18880;DHT22;9572;52.378;13.404;2023-04-24T01:50:20;10.70;99.90
18880;DHT22;9572;52.378;13.404;2023-04-24T01:52:47;10.70;99.90
18880;DHT22;9572;52.378;13.404;2023-04-24T01:55:13;10.70;99.90
18880;DHT22;9572;52.378;13.404;2023-04-24T01:57:42;10.70;99.90
18880;DHT22;9572;52.378;13.404;2023-04-24T02:00:09;10.60;99.90
18880;DHT22;9572;52.378;13.404;2023-04-24T02:02:38;10.70;99.90
18880;DHT22;9572;52.378;13.404;2023-04-24T02:05:06;10.70;99.90
18880;DHT22;9572;52.378;13.404;2023-04-24T02:07:33;10.70;99.90
18880;DHT22;9572;52.378;13.404;2023-04-24T02:10:00;10.70;99.90
18880;DHT22;9572;52.378;13.404;2023-04-24T02:12:27;10.70;99.90
18880;DHT22;9572;52.378;13.404;2023-04-24T02:14:55;10.70;99.90
18880;DHT22;9572;52.378;13.404;2023-04-24T02:17:22;10.70;99.90
18880;DHT22;9572;52.378;13.404;2023-04-24T02:19:49;10.70;99.90
18880;DHT22;9572;52.378;13.404;2023-04-24T02:22:16;10.70;99.90
18880;DHT22;9572;52.378;13.404;2023-04-24T02:24:43;10.70;99.90
18880;DHT22;9572;52.378;13.404;2023-04-24T02:27:10;10.80;99.90
18880;DHT22;9572;52.378;13.404;2023-04-24T02:29:37;10.80;99.90
18880;DHT22;9572;52.378;13.404;2023-04-24T02:32:05;10.80;99.90
18880;DHT22;9572;52.378;13.404;2023-04-24T02:34:32;10.80;99.90
18880;DHT22;9572;52.378;13.404;2023-04-24T02:36:59;10.80;99.90
18880;DHT22;9572;52.378;13.404;2023-04-24T02:39:26;10.80;99.90
18880;DHT22;9572;52.378;13.404;2023-04-24T02:41:53;10.80;99.90
18880;DHT22;9572;52.378;13.404;2023-04-24T02:44:19;10.90;99.90
18880;DHT22;9572;52.378;13.404;2023-04-24T02:46:47;10.90;99.90
18880;DHT22;9572;52.378;13.404;2023-04-24T02:49:15;11.00;99.90
18880;DHT22;9572;52.378;13.404;2023-04-24T02:51:42;11.00;99.90
18880;DHT22;9572;52.378;13.404;2023-04-24T02:54:09;11.00;99.90
18880;DHT22;9572;52.378;13.404;2023-04-24T02:56:36;11.00;99.90
18880;DHT22;9572;52.378;13.404;2023-04-24T02:59:03;11.00;99.90
18880;DHT22;9572;52.378;13.404;2023-04-24T03:01:30;11.00;99.90
18880;DHT22;9572;52.378;13.404;2023-04-24T03:03:57;11.00;99.90
18880;DHT22;9572;52.378;13.404;2023-04-24T03:06:25;11.10;99.90
18880;DHT22;9572;52.378;13.404;2023-04-24T03:08:52;11.10;99.90
18880;DHT22;9572;52.378;13.404;2023-04-24T03:11:20;11.10;99.90
18880;DHT22;9572;52.378;13.404;2023-04-24T03:13:46;11.10;99.90
18880;DHT22;9572;52.378;13.404;2023-04-24T03:16:13;11.10;99.90
18880;DHT22;9572;52.378;13.404;2023-04-24T03:18:40;11.20;99.90
18880;DHT22;9572;52.378;13.404;2023-04-24T03:21:07;11.20;99.90
18880;DHT22;9572;52.378;13.404;2023-04-24T03:23:35;11.20;99.90
18880;DHT22;9572;52.378;13.404;2023-04-24T03:26:02;11.20;99.90
18880;DHT22;9572;52.378;13.404;2023-04-24T03:28:29;11.20;99.90
18880;DHT22;9572;52.378;13.404;2023-04-24T03:30:56;11.30;99.90
18880;DHT22;9572;52.378;13.404;2023-04-24T03:33:23;11.30;99.90
18880;DHT22;9572;52.378;13.404;2023-04-24T03:35:50;11.30;99.90
18880;DHT22;9572;52.378;13.404;2023-04-24T03:38:17;11.30;99.90
18880;DHT22;9572;52.378;13.404;2023-04-24T03:40:45;11.30;99.90
18880;DHT22;9572;52.378;13.404;2023-04-24T03:43:12;11.40;99.90
18880;DHT22;9572;52.378;13.404;2023-04-24T03:45:39;11.50;99.90
18880;DHT22;9572;52.378;13.404;2023-04-24T03:48:05;11.50;99.90
18880;DHT22;9572;52.378;13.404;2023-04-24T03:50:33;11.50;99.90
18880;DHT22;9572;52.378;13.404;2023-04-24T03:53:00;11.50;99.90
18880;DHT22;9572;52.378;13.404;2023-04-24T03:55:26;11.50;99.90
18880;DHT22;9572;52.378;13.404;2023-04-24T03:57:55;11.40;99.90
18880;DHT22;9572;52.378;13.404;2023-04-24T04:00:22;11.40;99.90
18880;DHT22;9572;52.378;13.404;2023-04-24T04:02:48;11.40;99.90
18880;DHT22;9572;52.378;13.404;2023-04-24T04:05:15;11.40;99.90
18880;DHT22;9572;52.378;13.404;2023-04-24T04:07:42;11.40;99.90
18880;DHT22;9572;52.378;13.404;2023-04-24T04:10:09;11.40;99.90
18880;DHT22;9572;52.378;13.404;2023-04-24T04:12:36;11.40;99.90
18880;DHT22;9572;52.378;13.404;2023-04-24T04:15:05;11.40;99.90
18880;DHT22;9572;52.378;13.404;2023-04-24T04:17:33;11.40;99.90
18880;DHT22;9572;52.378;13.404;2023-04-24T04:19:59;11.40;99.90
18880;DHT22;9572;52.378;13.404;2023-04-24T04:22:27;11.40;99.90
18880;DHT22;9572;52.378;13.404;2023-04-24T04:24:53;11.40;99.90
18880;DHT22;9572;52.378;13.404;2023-04-24T04:27:20;11.40;99.90
18880;DHT22;9572;52.378;13.404;2023-04-24T04:29:47;11.40;99.90
18880;DHT22;9572;52.378;13.404;2023-04-24T04:32:15;11.40;99.90
18880;DHT22;9572;52.378;13.404;2023-04-24T04:34:42;11.50;99.90
18880;DHT22;9572;52.378;13.404;2023-04-24T04:37:10;11.50;99.90
18880;DHT22;9572;52.378;13.404;2023-04-24T04:39:38;11.50;99.90
18880;DHT22;9572;52.378;13.404;2023-04-24T04:42:05;11.60;99.90
18880;DHT22;9572;52.378;13.404;2023-04-24T04:44:32;11.80;99.90
18880;DHT22;9572;52.378;13.404;2023-04-24T04:47:01;11.80;99.90
18880;DHT22;9572;52.378;13.404;2023-04-24T04:49:32;11.80;99.90
18880;DHT22;9572;52.378;13.404;2023-04-24T04:51:59;11.80;99.90
18880;DHT22;9572;52.378;13.404;2023-04-24T04:54:26;11.80;99.90
18880;DHT22;9572;52.378;13.404;2023-04-24T04:56:53;11.80;99.90
18880;DHT22;9572;52.378;13.404;2023-04-24T04:59:20;11.90;99.90
18880;DHT22;9572;52.378;13.404;2023-04-24T05:01:47;11.90;99.90
18880;DHT22;9572;52.378;13.404;2023-04-24T05:04:14;12.00;99.90
18880;DHT22;9572;52.378;13.404;2023-04-24T05:06:42;12.00;99.90
18880;DHT22;9572;52.378;13.404;2023-04-24T05:09:09;12.10;99.90
18880;DHT22;9572;52.378;13.404;2023-04-24T05:11:36;12.20;99.90
18880;DHT22;9572;52.378;13.404;2023-04-24T05:14:02;12.20;99.90
18880;DHT22;9572;52.378;13.404;2023-04-24T05:16:29;12.20;99.90
18880;DHT22;9572;52.378;13.404;2023-04-24T05:18:57;12.20;99.90
18880;DHT22;9572;52.378;13.404;2023-04-24T05:21:24;12.30;99.90
18880;DHT22;9572;52.378;13.404;2023-04-24T05:23:52;12.30;99.90
18880;DHT22;9572;52.378;13.404;2023-04-24T05:26:19;12.30;99.90
18880;DHT22;9572;52.378;13.404;2023-04-24T05:28:46;12.40;99.90
18880;DHT22;9572;52.378;13.404;2023-04-24T05:31:12;12.60;99.90
18880;DHT22;9572;52.378;13.404;2023-04-24T05:33:39;12.60;99.90
18880;DHT22;9572;52.378;13.404;2023-04-24T05:36:06;12.70;99.90
18880;DHT22;9572;52.378;13.404;2023-04-24T05:38:33;12.80;99.90
18880;DHT22;9572;52.378;13.404;2023-04-24T05:41:02;12.80;99.90
18880;DHT22;9572;52.378;13.404;2023-04-24T05:43:29;13.00;99.90
18880;DHT22;9572;52.378;13.404;2023-04-24T05:45:56;13.20;99.90
18880;DHT22;9572;52.378;13.404;2023-04-24T05:48:22;13.30;99.90
18880;DHT22;9572;52.378;13.404;2023-04-24T05:50:49;13.30;99.90
18880;DHT22;9572;52.378;13.404;2023-04-24T05:53:18;13.20;99.90
18880;DHT22;9572;52.378;13.404;2023-04-24T05:55:45;13.30;99.90
18880;DHT22;9572;52.378;13.404;2023-04-24T05:58:13;13.40;99.90
18880;DHT22;9572;52.378;13.404;2023-04-24T06:00:41;13.40;99.90
18880;DHT22;9572;52.378;13.404;2023-04-24T06:03:08;13.40;99.90
18880;DHT22;9572;52.378;13.404;2023-04-24T06:05:35;13.40;99.90
18880;DHT22;9572;52.378;13.404;2023-04-24T06:08:02;13.60;99.90
18880;DHT22;9572;52.378;13.404;2023-04-24T06:10:29;13.80;99.90
18880;DHT22;9572;52.378;13.404;2023-04-24T06:12:56;13.90;99.90
18880;DHT22;9572;52.378;13.404;2023-04-24T06:15:28;14.00;99.90
18880;DHT22;9572;52.378;13.404;2023-04-24T06:17:56;14.10;99.90
18880;DHT22;9572;52.378;13.404;2023-04-24T06:20:23;14.30;99.90
18880;DHT22;9572;52.378;13.404;2023-04-24T06:22:50;14.20;99.90
18880;DHT22;9572;52.378;13.404;2023-04-24T06:25:17;14.10;99.90
18880;DHT22;9572;52.378;13.404;2023-04-24T06:27:44;13.90;99.90
18880;DHT22;9572;52.378;13.404;2023-04-24T06:30:12;13.90;99.90
18880;DHT22;9572;52.378;13.404;2023-04-24T06:32:41;14.00;99.90
18880;DHT22;9572;52.378;13.404;2023-04-24T06:35:08;14.10;99.90
18880;DHT22;9572;52.378;13.404;2023-04-24T06:37:35;14.40;99.90
18880;DHT22;9572;52.378;13.404;2023-04-24T06:40:02;14.50;99.90
18880;DHT22;9572;52.378;13.404;2023-04-24T06:42:29;14.70;99.90
18880;DHT22;9572;52.378;13.404;2023-04-24T06:44:56;14.90;99.90
18880;DHT22;9572;52.378;13.404;2023-04-24T06:47:23;15.00;99.90
18880;DHT22;9572;52.378;13.404;2023-04-24T06:49:51;15.20;99.90
18880;DHT22;9572;52.378;13.404;2023-04-24T06:52:19;15.30;99.90
18880;DHT22;9572;52.378;13.404;2023-04-24T06:54:46;15.50;99.90
18880;DHT22;9572;52.378;13.404;2023-04-24T06:57:12;15.70;99.90
18880;DHT22;9572;52.378;13.404;2023-04-24T06:59:41;15.80;99.90
18880;DHT22;9572;52.378;13.404;2023-04-24T07:02:08;15.90;99.90
18880;DHT22;9572;52.378;13.404;2023-04-24T07:04:35;16.00;99.90
18880;DHT22;9572;52.378;13.404;2023-04-24T07:07:03;16.10;99.90
18880;DHT22;9572;52.378;13.404;2023-04-24T07:09:32;16.20;99.90
18880;DHT22;9572;52.378;13.404;2023-04-24T07:12:00;16.20;99.90
18880;DHT22;9572;52.378;13.404;2023-04-24T07:14:27;16.30;99.90
18880;DHT22;9572;52.378;13.404;2023-04-24T07:16:54;16.40;99.90
18880;DHT22;9572;52.378;13.404;2023-04-24T07:19:22;16.60;99.90
18880;DHT22;9572;52.378;13.404;2023-04-24T07:21:49;16.70;99.90
18880;DHT22;9572;52.378;13.404;2023-04-24T07:24:17;16.80;99.90
18880;DHT22;9572;52.378;13.404;2023-04-24T07:26:44;16.70;99.90
18880;DHT22;9572;52.378;13.404;2023-04-24T07:29:12;16.60;99.90
18880;DHT22;9572;52.378;13.404;2023-04-24T07:31:40;16.40;99.90
18880;DHT22;9572;52.378;13.404;2023-04-24T07:34:07;16.40;99.90
18880;DHT22;9572;52.378;13.404;2023-04-24T07:36:34;16.50;99.90
18880;DHT22;9572;52.378;13.404;2023-04-24T07:39:01;16.70;99.90
18880;DHT22;9572;52.378;13.404;2023-04-24T07:41:29;17.00;99.90
18880;DHT22;9572;52.378;13.404;2023-04-24T07:43:56;17.20;99.90
18880;DHT22;9572;52.378;13.404;2023-04-24T07:46:23;17.20;99.90
18880;DHT22;9572;52.378;13.404;2023-04-24T07:48:50;17.30;99.90
18880;DHT22;9572;52.378;13.404;2023-04-24T07:51:17;17.40;99.90
18880;DHT22;9572;52.378;13.404;2023-04-24T07:53:44;17.50;99.90
18880;DHT22;9572;52.378;13.404;2023-04-24T07:56:11;17.50;99.90
18880;DHT22;9572;52.378;13.404;2023-04-24T07:58:39;17.30;99.90
18880;DHT22;9572;52.378;13.404;2023-04-24T08:01:06;17.30;99.90
18880;DHT22;9572;52.378;13.404;2023-04-24T08:03:33;17.20;99.90
18880;DHT22;9572;52.378;13.404;2023-04-24T08:06:00;17.20;99.90
18880;DHT22;9572;52.378;13.404;2023-04-24T08:08:27;17.20;99.90
18880;DHT22;9572;52.378;13.404;2023-04-24T08:10:54;17.30;99.90
18880;DHT22;9572;52.378;13.404;2023-04-24T08:13:21;17.20;99.90
18880;DHT22;9572;52.378;13.404;2023-04-24T08:15:50;17.10;99.90
18880;DHT22;9572;52.378;13.404;2023-04-24T08:18:16;17.00;99.90
18880;DHT22;9572;52.378;13.404;2023-04-24T08:20:43;17.20;99.90
18880;DHT22;9572;52.378;13.404;2023-04-24T08:23:10;17.60;99.90
18880;DHT22;9572;52.378;13.404;2023-04-24T08:25:37;17.90;99.90
18880;DHT22;9572;52.378;13.404;2023-04-24T08:28:06;18.10;99.90
18880;DHT22;9572;52.378;13.404;2023-04-24T08:30:33;18.20;99.90
18880;DHT22;9572;52.378;13.404;2023-04-24T08:33:01;18.30;99.90
18880;DHT22;9572;52.378;13.404;2023-04-24T08:35:28;18.40;99.90
18880;DHT22;9572;52.378;13.404;2023-04-24T08:37:55;18.30;99.90
18880;DHT22;9572;52.378;13.404;2023-04-24T08:40:28;18.40;99.90
18880;DHT22;9572;52.378;13.404;2023-04-24T08:42:55;18.70;99.90
18880;DHT22;9572;52.378;13.404;2023-04-24T08:45:23;18.80;99.90
18880;DHT22;9572;52.378;13.404;2023-04-24T08:47:52;18.90;99.90
18880;DHT22;9572;52.378;13.404;2023-04-24T08:50:21;19.10;99.90
18880;DHT22;9572;52.378;13.404;2023-04-24T08:52:50;19.00;99.90
18880;DHT22;9572;52.378;13.404;2023-04-24T08:55:19;18.80;99.90
18880;DHT22;9572;52.378;13.404;2023-04-24T08:57:49;18.70;99.90
18880;DHT22;9572;52.378;13.404;2023-04-24T09:00:17;18.60;99.90
18880;DHT22;9572;52.378;13.404;2023-04-24T09:02:45;18.80;99.90
18880;DHT22;9572;52.378;13.404;2023-04-24T09:05:13;18.90;99.90
18880;DHT22;9572;52.378;13.404;2023-04-24T09:07:45;18.90;99.90
18880;DHT22;9572;52.378;13.404;2023-04-24T09:10:13;18.80;99.90
18880;DHT22;9572;52.378;13.404;2023-04-24T09:12:41;18.60;99.90
18880;DHT22;9572;52.378;13.404;2023-04-24T09:15:09;18.50;99.90
18880;DHT22;9572;52.378;13.404;2023-04-24T09:17:36;18.30;99.90
18880;DHT22;9572;52.378;13.404;2023-04-24T09:20:04;18.10;99.90
18880;DHT22;9572;52.378;13.404;2023-04-24T09:22:31;17.90;99.90
18880;DHT22;9572;52.378;13.404;2023-04-24T09:25:07;17.70;99.90
18880;DHT22;9572;52.378;13.404;2023-04-24T09:27:35;17.70;99.90
18880;DHT22;9572;52.378;13.404;2023-04-24T09:30:03;17.60;99.90
18880;DHT22;9572;52.378;13.404;2023-04-24T09:32:30;17.50;99.90
18880;DHT22;9572;52.378;13.404;2023-04-24T09:35:08;17.50;99.90
18880;DHT22;9572;52.378;13.404;2023-04-24T09:37:36;17.70;99.90
18880;DHT22;9572;52.378;13.404;2023-04-24T09:40:23;17.60;99.90
18880;DHT22;9572;52.378;13.404;2023-04-24T09:42:52;17.60;99.90
18880;DHT22;9572;52.378;13.404;2023-04-24T09:45:20;17.60;99.90
18880;DHT22;9572;52.378;13.404;2023-04-24T09:47:51;17.60;99.90
18880;DHT22;9572;52.378;13.404;2023-04-24T09:50:18;17.60;99.90
18880;DHT22;9572;52.378;13.404;2023-04-24T09:52:46;17.70;99.90
18880;DHT22;9572;52.378;13.404;2023-04-24T09:55:19;17.70;99.90
18880;DHT22;9572;52.378;13.404;2023-04-24T09:57:49;17.90;99.90
18880;DHT22;9572;52.378;13.404;2023-04-24T10:00:24;18.20;99.90
18880;DHT22;9572;52.378;13.404;2023-04-24T10:02:56;18.40;99.90
18880;DHT22;9572;52.378;13.404;2023-04-24T10:05:24;18.50;99.90
18880;DHT22;9572;52.378;13.404;2023-04-24T10:07:52;18.80;99.90
18880;DHT22;9572;52.378;13.404;2023-04-24T10:10:22;18.90;99.90
18880;DHT22;9572;52.378;13.404;2023-04-24T10:12:51;19.00;99.90
18880;DHT22;9572;52.378;13.404;2023-04-24T10:15:19;18.70;99.90
18880;DHT22;9572;52.378;13.404;2023-04-24T10:17:47;18.50;99.90
18880;DHT22;9572;52.378;13.404;2023-04-24T10:20:19;18.70;99.90
18880;DHT22;9572;52.378;13.404;2023-04-24T10:22:48;19.10;99.90
18880;DHT22;9572;52.378;13.404;2023-04-24T10:25:18;19.60;99.90
18880;DHT22;9572;52.378;13.404;2023-04-24T10:27:46;20.00;99.90
18880;DHT22;9572;52.378;13.404;2023-04-24T10:30:15;20.50;99.90
18880;DHT22;9572;52.378;13.404;2023-04-24T10:32:42;20.60;99.90
18880;DHT22;9572;52.378;13.404;2023-04-24T10:35:12;20.10;99.90
18880;DHT22;9572;52.378;13.404;2023-04-24T10:37:44;19.80;99.90
18880;DHT22;9572;52.378;13.404;2023-04-24T10:40:17;19.40;99.90
18880;DHT22;9572;52.378;13.404;2023-04-24T10:42:47;19.00;99.90
18880;DHT22;9572;52.378;13.404;2023-04-24T10:45:19;18.60;99.90
18880;DHT22;9572;52.378;13.404;2023-04-24T10:47:57;18.50;99.90
18880;DHT22;9572;52.378;13.404;2023-04-24T10:50:27;18.40;99.90
18880;DHT22;9572;52.378;13.404;2023-04-24T10:53:05;18.40;99.90
18880;DHT22;9572;52.378;13.404;2023-04-24T10:55:43;18.40;99.90
18880;DHT22;9572;52.378;13.404;2023-04-24T10:58:11;18.40;99.90
18880;DHT22;9572;52.378;13.404;2023-04-24T11:00:40;18.80;99.90
18880;DHT22;9572;52.378;13.404;2023-04-24T11:03:24;19.40;99.90
18880;DHT22;9572;52.378;13.404;2023-04-24T11:06:02;19.90;99.90
18880;DHT22;9572;52.378;13.404;2023-04-24T11:08:31;20.40;99.90
18880;DHT22;9572;52.378;13.404;2023-04-24T11:11:00;20.60;99.90
18880;DHT22;9572;52.378;13.404;2023-04-24T11:16:42;19.90;99.90
18880;DHT22;9572;52.378;13.404;2023-04-24T11:19:21;19.40;99.90
18880;DHT22;9572;52.378;13.404;2023-04-24T11:21:56;19.00;99.90
18880;DHT22;9572;52.378;13.404;2023-04-24T11:24:29;18.20;99.90
18880;DHT22;9572;52.378;13.404;2023-04-24T11:26:58;17.10;99.90
18880;DHT22;9572;52.378;13.404;2023-04-24T11:29:43;16.50;99.90
18880;DHT22;9572;52.378;13.404;2023-04-24T11:32:23;16.20;99.90
18880;DHT22;9572;52.378;13.404;2023-04-24T11:34:52;16.60;99.90
18880;DHT22;9572;52.378;13.404;2023-04-24T11:37:19;17.20;99.90
18880;DHT22;9572;52.378;13.404;2023-04-24T11:39:46;17.70;99.90
18880;DHT22;9572;52.378;13.404;2023-04-24T11:42:14;18.10;99.90
18880;DHT22;9572;52.378;13.404;2023-04-24T11:44:42;18.50;99.90
18880;DHT22;9572;52.378;13.404;2023-04-24T11:47:09;18.80;99.90
18880;DHT22;9572;52.378;13.404;2023-04-24T11:49:38;19.10;99.90
18880;DHT22;9572;52.378;13.404;2023-04-24T11:52:05;19.00;99.90
18880;DHT22;9572;52.378;13.404;2023-04-24T11:54:32;18.80;99.90
18880;DHT22;9572;52.378;13.404;2023-04-24T11:56:59;18.90;99.90
18880;DHT22;9572;52.378;13.404;2023-04-24T11:59:30;18.90;99.90
18880;DHT22;9572;52.378;13.404;2023-04-24T12:02:01;18.70;99.90
18880;DHT22;9572;52.378;13.404;2023-04-24T12:04:40;18.50;99.90
18880;DHT22;9572;52.378;13.404;2023-04-24T12:07:07;18.50;99.90
18880;DHT22;9572;52.378;13.404;2023-04-24T12:09:41;18.60;99.90
18880;DHT22;9572;52.378;13.404;2023-04-24T12:12:09;18.90;99.90
18880;DHT22;9572;52.378;13.404;2023-04-24T12:14:43;19.20;99.90
18880;DHT22;9572;52.378;13.404;2023-04-24T12:17:10;19.50;99.90
18880;DHT22;9572;52.378;13.404;2023-04-24T12:19:37;19.60;99.90
18880;DHT22;9572;52.378;13.404;2023-04-24T12:22:06;19.40;99.90
18880;DHT22;9572;52.378;13.404;2023-04-24T12:24:33;19.20;99.90
18880;DHT22;9572;52.378;13.404;2023-04-24T12:27:00;19.20;99.90
18880;DHT22;9572;52.378;13.404;2023-04-24T12:29:27;19.10;99.90
18880;DHT22;9572;52.378;13.404;2023-04-24T12:31:54;18.80;99.90
18880;DHT22;9572;52.378;13.404;2023-04-24T12:34:23;18.50;99.90
18880;DHT22;9572;52.378;13.404;2023-04-24T12:36:50;18.20;99.90
18880;DHT22;9572;52.378;13.404;2023-04-24T12:39:20;18.10;99.90
18880;DHT22;9572;52.378;13.404;2023-04-24T12:41:55;18.20;99.90
18880;DHT22;9572;52.378;13.404;2023-04-24T12:44:30;18.40;99.90
18880;DHT22;9572;52.378;13.404;2023-04-24T12:47:00;18.50;99.90
18880;DHT22;9572;52.378;13.404;2023-04-24T12:49:27;18.60;99.90
18880;DHT22;9572;52.378;13.404;2023-04-24T12:51:54;18.60;99.90
18880;DHT22;9572;52.378;13.404;2023-04-24T12:54:22;18.60;99.90
18880;DHT22;9572;52.378;13.404;2023-04-24T12:56:49;18.80;99.90
18880;DHT22;9572;52.378;13.404;2023-04-24T12:59:16;18.80;99.90
18880;DHT22;9572;52.378;13.404;2023-04-24T13:01:43;18.70;99.90
18880;DHT22;9572;52.378;13.404;2023-04-24T13:04:10;18.50;99.90
18880;DHT22;9572;52.378;13.404;2023-04-24T13:06:37;18.20;99.90
18880;DHT22;9572;52.378;13.404;2023-04-24T13:09:04;18.20;99.90
18880;DHT22;9572;52.378;13.404;2023-04-24T13:11:32;18.50;99.90
18880;DHT22;9572;52.378;13.404;2023-04-24T13:13:59;18.80;99.90
18880;DHT22;9572;52.378;13.404;2023-04-24T13:16:26;19.00;99.90
18880;DHT22;9572;52.378;13.404;2023-04-24T13:18:53;19.00;99.90
18880;DHT22;9572;52.378;13.404;2023-04-24T13:21:19;18.80;99.90
18880;DHT22;9572;52.378;13.404;2023-04-24T13:23:46;18.80;99.90
18880;DHT22;9572;52.378;13.404;2023-04-24T13:26:13;18.70;99.90
18880;DHT22;9572;52.378;13.404;2023-04-24T13:28:42;18.70;99.90
18880;DHT22;9572;52.378;13.404;2023-04-24T13:31:09;18.90;99.90
18880;DHT22;9572;52.378;13.404;2023-04-24T13:33:36;19.00;99.90
18880;DHT22;9572;52.378;13.404;2023-04-24T13:36:03;19.10;99.90
18880;DHT22;9572;52.378;13.404;2023-04-24T13:38:30;19.00;99.90
18880;DHT22;9572;52.378;13.404;2023-04-24T13:40:57;19.10;99.90
18880;DHT22;9572;52.378;13.404;2023-04-24T13:43:24;19.30;99.90
18880;DHT22;9572;52.378;13.404;2023-04-24T13:45:52;19.40;99.90
18880;DHT22;9572;52.378;13.404;2023-04-24T13:48:19;19.60;99.90
18880;DHT22;9572;52.378;13.404;2023-04-24T13:50:47;19.50;99.90
18880;DHT22;9572;52.378;13.404;2023-04-24T13:53:15;19.40;99.90
18880;DHT22;9572;52.378;13.404;2023-04-24T13:55:41;19.30;99.90
18880;DHT22;9572;52.378;13.404;2023-04-24T13:58:08;19.30;99.90
18880;DHT22;9572;52.378;13.404;2023-04-24T14:00:36;19.20;99.90
18880;DHT22;9572;52.378;13.404;2023-04-24T14:03:04;19.20;99.90
18880;DHT22;9572;52.378;13.404;2023-04-24T14:05:31;19.10;99.90
18880;DHT22;9572;52.378;13.404;2023-04-24T14:07:58;18.90;99.90
18880;DHT22;9572;52.378;13.404;2023-04-24T14:10:25;19.00;99.90
18880;DHT22;9572;52.378;13.404;2023-04-24T14:12:52;19.30;99.90
18880;DHT22;9572;52.378;13.404;2023-04-24T14:15:19;19.50;99.90
18880;DHT22;9572;52.378;13.404;2023-04-24T14:17:47;19.60;99.90
18880;DHT22;9572;52.378;13.404;2023-04-24T14:20:16;19.40;99.90
18880;DHT22;9572;52.378;13.404;2023-04-24T14:22:43;19.00;99.90
18880;DHT22;9572;52.378;13.404;2023-04-24T14:25:10;18.70;99.90
18880;DHT22;9572;52.378;13.404;2023-04-24T14:27:37;18.50;99.90
18880;DHT22;9572;52.378;13.404;2023-04-24T14:30:06;18.20;99.90
18880;DHT22;9572;52.378;13.404;2023-04-24T14:32:34;18.20;99.90
18880;DHT22;9572;52.378;13.404;2023-04-24T14:35:01;18.30;99.90
18880;DHT22;9572;52.378;13.404;2023-04-24T14:37:29;18.60;99.90
18880;DHT22;9572;52.378;13.404;2023-04-24T14:39:56;18.70;99.90
18880;DHT22;9572;52.378;13.404;2023-04-24T14:42:24;18.80;99.90
18880;DHT22;9572;52.378;13.404;2023-04-24T14:44:51;18.90;99.90
18880;DHT22;9572;52.378;13.404;2023-04-24T14:47:18;19.00;99.90
18880;DHT22;9572;52.378;13.404;2023-04-24T14:49:46;18.90;99.90
18880;DHT22;9572;52.378;13.404;2023-04-24T14:52:13;18.80;99.90
18880;DHT22;9572;52.378;13.404;2023-04-24T14:54:43;18.60;99.90
18880;DHT22;9572;52.378;13.404;2023-04-24T14:57:10;18.20;99.90
18880;DHT22;9572;52.378;13.404;2023-04-24T14:59:36;17.90;99.90
18880;DHT22;9572;52.378;13.404;2023-04-24T15:02:03;17.80;99.90
18880;DHT22;9572;52.378;13.404;2023-04-24T15:04:30;17.60;99.90
18880;DHT22;9572;52.378;13.404;2023-04-24T15:06:57;17.70;99.90
18880;DHT22;9572;52.378;13.404;2023-04-24T15:09:24;17.90;99.90
18880;DHT22;9572;52.378;13.404;2023-04-24T15:11:54;18.10;99.90
18880;DHT22;9572;52.378;13.404;2023-04-24T15:14:22;18.10;99.90
18880;DHT22;9572;52.378;13.404;2023-04-24T15:16:48;18.10;99.90
18880;DHT22;9572;52.378;13.404;2023-04-24T15:19:15;18.00;99.90
18880;DHT22;9572;52.378;13.404;2023-04-24T15:21:42;17.90;99.90
18880;DHT22;9572;52.378;13.404;2023-04-24T15:24:10;17.70;99.90
18880;DHT22;9572;52.378;13.404;2023-04-24T15:26:36;17.50;99.90
18880;DHT22;9572;52.378;13.404;2023-04-24T15:29:05;17.30;99.90
18880;DHT22;9572;52.378;13.404;2023-04-24T15:31:32;17.10;99.90
18880;DHT22;9572;52.378;13.404;2023-04-24T15:33:59;16.90;99.90
18880;DHT22;9572;52.378;13.404;2023-04-24T15:36:26;16.70;99.90
18880;DHT22;9572;52.378;13.404;2023-04-24T15:38:53;16.60;99.90